createdAt,value
2019-04-16T00:01:13.886Z,14.63
2019-04-16T00:06:18.951Z,15.87
2019-04-16T00:11:24.692Z,14.80
2019-04-16T00:16:25.898Z,15.50
2019-04-16T00:21:38.394Z,14.70
2019-04-16T00:26:40.880Z,14.37
2019-04-16T00:31:43.881Z,16.03
2019-04-16T00:36:48.441Z,16.30
2019-04-16T00:41:47.975Z,15.80
2019-04-16T00:46:49.100Z,16.27
2019-04-16T00:51:50.195Z,14.53
2019-04-16T00:56:51.376Z,15.10
2019-04-16T01:01:52.467Z,16.00
2019-04-16T01:06:53.567Z,14.93
2019-04-16T01:11:54.661Z,14.90
2019-04-16T01:16:55.757Z,14.50
2019-04-16T01:21:56.847Z,14.47
2019-04-16T01:26:59.067Z,15.07
2019-04-16T01:32:02.235Z,15.57
2019-04-16T01:37:25.526Z,15.57
2019-04-16T01:42:25.283Z,15.70
2019-04-16T01:47:26.399Z,17.33
2019-04-16T01:52:27.512Z,15.93
2019-04-16T01:57:30.775Z,15.40
2019-04-16T02:02:31.603Z,15.53
2019-04-16T02:07:32.699Z,18.20
2019-04-16T02:12:33.893Z,17.17
2019-04-16T02:17:34.977Z,17.50
2019-04-16T02:22:36.173Z,16.60
2019-04-16T02:27:37.256Z,17.33
2019-04-16T02:32:38.363Z,16.10
2019-04-16T02:37:40.046Z,15.47
2019-04-16T02:42:41.142Z,16.13
2019-04-16T02:47:42.541Z,15.53
2019-04-16T02:52:50.230Z,15.47
2019-04-16T02:58:00.271Z,16.30
2019-04-16T03:03:22.229Z,15.80
2019-04-16T03:08:22.754Z,15.73
2019-04-16T03:13:24.848Z,17.50
2019-04-16T03:18:36.875Z,16.57
2019-04-16T03:23:37.965Z,16.93
2019-04-16T03:28:39.051Z,17.82
2019-04-16T03:33:48.298Z,17.17
2019-04-16T03:38:43.156Z,17.20
2019-04-16T03:43:44.247Z,16.43
2019-04-16T03:48:45.525Z,19.03
2019-04-16T03:53:49.492Z,17.80
2019-04-16T03:58:49.623Z,18.13
2019-04-16T04:03:50.834Z,17.87
2019-04-16T04:08:53.300Z,16.63
2019-04-16T04:13:54.639Z,17.67
2019-04-16T04:18:55.742Z,16.10
2019-04-16T04:23:59.718Z,16.33
2019-04-16T04:28:59.824Z,17.53
2019-04-16T04:34:01.037Z,17.27
2019-04-16T04:39:08.945Z,16.70
2019-04-16T04:44:08.143Z,16.80
2019-04-16T04:49:09.270Z,18.63
2019-04-16T04:54:10.380Z,17.43
2019-04-16T04:59:13.096Z,17.63
2019-04-16T05:04:25.000Z,19.27
2019-04-16T05:09:29.213Z,15.43
2019-04-16T05:14:29.090Z,16.17
2019-04-16T05:19:30.186Z,16.27
2019-04-16T05:24:31.275Z,16.13
2019-04-16T05:29:32.355Z,16.23
2019-04-16T05:34:34.535Z,15.87
2019-04-16T05:39:36.552Z,16.43
2019-04-16T05:44:37.679Z,15.10
2019-04-16T05:49:38.791Z,15.37
2019-04-16T05:55:01.207Z,15.40
2019-04-16T06:00:03.373Z,14.97
2019-04-16T06:05:05.704Z,15.80
2019-04-16T06:10:07.503Z,15.60
2019-04-16T06:15:10.733Z,14.37
2019-04-16T06:20:20.758Z,14.23
2019-04-16T06:25:41.032Z,14.33
2019-04-16T06:30:47.259Z,14.40
2019-04-16T06:36:05.451Z,15.17
2019-04-16T06:41:11.197Z,14.43
2019-04-16T06:46:26.284Z,15.30
2019-04-16T06:51:32.235Z,14.83
2019-04-16T06:56:40.411Z,16.23
2019-04-16T07:01:58.254Z,16.17
2019-04-16T07:07:13.272Z,14.30
2019-04-16T07:12:16.275Z,15.80
2019-04-16T07:17:18.739Z,15.40
2019-04-16T07:22:21.215Z,15.23
2019-04-16T07:27:23.281Z,15.70
2019-04-16T07:32:26.587Z,15.87
2019-04-16T07:37:32.832Z,15.90
2019-04-16T07:42:52.158Z,16.40
2019-04-16T07:48:07.053Z,15.83
2019-04-16T07:53:27.061Z,16.53
2019-04-16T07:58:28.178Z,16.67
2019-04-16T08:03:29.267Z,16.80
2019-04-16T08:08:30.387Z,17.40
2019-04-16T08:13:34.337Z,18.67
2019-04-16T08:18:37.521Z,17.43
2019-04-16T08:23:43.499Z,17.83
2019-04-16T08:28:44.602Z,16.47
2019-04-16T08:33:45.700Z,18.33
2019-04-16T08:38:47.004Z,17.10
2019-04-16T08:43:48.103Z,18.43
2019-04-16T08:48:52.362Z,18.10
2019-04-16T08:53:52.268Z,18.37
2019-04-16T08:58:57.099Z,18.13
2019-04-16T09:04:01.529Z,17.70
2019-04-16T09:09:12.952Z,18.30
2019-04-16T09:14:05.573Z,19.07
2019-04-16T09:19:08.600Z,18.47
2019-04-16T09:24:23.731Z,19.13
2019-04-16T09:29:29.751Z,18.43
2019-04-16T09:34:41.627Z,18.40
2019-04-16T09:40:01.307Z,19.27
2019-04-16T09:45:05.795Z,17.77
2019-04-16T09:50:11.161Z,17.07
2019-04-16T09:55:10.519Z,17.80
2019-04-16T10:00:17.338Z,16.77
2019-04-16T10:05:17.150Z,15.70
2019-04-16T10:10:18.248Z,14.77
2019-04-16T10:15:19.348Z,14.67
2019-04-16T10:20:20.779Z,17.13
2019-04-16T10:25:22.155Z,16.03
2019-04-16T10:30:25.252Z,16.23
2019-04-16T10:35:26.441Z,16.10
2019-04-16T10:40:29.537Z,16.73
2019-04-16T10:45:49.415Z,17.13
2019-04-16T10:50:55.456Z,17.07
2019-04-16T10:56:10.766Z,16.00
2019-04-16T11:01:19.811Z,15.60
2019-04-16T11:06:22.855Z,15.37
2019-04-16T11:11:24.051Z,15.90
2019-04-16T11:16:25.454Z,15.30
2019-04-16T11:21:26.648Z,15.97
2019-04-16T11:26:28.032Z,15.20
2019-04-16T11:31:29.456Z,15.77
2019-04-16T11:36:31.695Z,14.33
2019-04-16T11:41:33.075Z,14.90
2019-04-16T11:46:34.484Z,14.50
2019-04-16T11:51:35.596Z,15.10
2019-04-16T11:56:36.881Z,13.97
2019-04-16T12:01:46.122Z,12.53
2019-04-16T12:07:05.090Z,12.53
2019-04-16T12:12:06.386Z,12.67
2019-04-16T12:17:18.453Z,13.10
2019-04-16T12:22:38.162Z,10.95
2019-04-16T12:27:44.235Z,9.88
2019-04-16T12:33:07.442Z,9.90
2019-04-16T12:38:18.861Z,10.23
2019-04-16T12:43:30.804Z,10.27
2019-04-16T12:48:33.933Z,9.37
2019-04-16T12:53:54.224Z,10.13
2019-04-16T12:59:03.540Z,8.93
2019-04-16T13:04:06.544Z,9.13
2019-04-16T13:09:29.846Z,8.93
2019-04-16T13:14:37.713Z,9.93
2019-04-16T13:19:46.608Z,9.27
2019-04-16T13:24:49.622Z,9.03
2019-04-16T13:29:50.820Z,8.93
2019-04-16T13:34:54.026Z,8.77
2019-04-16T13:40:00.507Z,9.37
2019-04-16T13:45:21.682Z,9.00
2019-04-16T13:50:24.411Z,9.20
2019-04-16T13:55:30.331Z,8.77
2019-04-16T14:00:35.975Z,9.53
2019-04-16T14:05:38.415Z,7.70
2019-04-16T14:10:43.048Z,7.50
2019-04-16T14:15:44.767Z,6.37
2019-04-16T14:20:45.683Z,7.60
2019-04-16T14:25:46.907Z,7.33
2019-04-16T14:30:48.841Z,6.53
2019-04-16T14:35:50.253Z,6.27
2019-04-16T14:40:51.367Z,6.73
2019-04-16T14:45:59.383Z,7.37
2019-04-16T14:50:55.908Z,6.77
2019-04-16T14:56:01.244Z,6.57
2019-04-16T15:01:15.960Z,6.60
2019-04-16T15:06:35.852Z,6.60
2019-04-16T15:11:58.320Z,7.53
2019-04-16T15:17:17.192Z,6.67
2019-04-16T15:22:36.798Z,7.53
2019-04-16T15:27:49.582Z,7.80
2019-04-16T15:33:09.734Z,7.13
2019-04-16T15:38:18.619Z,8.80
2019-04-16T15:43:39.740Z,8.23
2019-04-16T15:49:01.358Z,10.47
2019-04-16T15:54:21.368Z,9.30
2019-04-16T15:59:24.378Z,9.77
2019-04-16T16:04:30.139Z,10.97
2019-04-16T16:09:42.071Z,10.20
2019-04-16T16:14:43.245Z,10.87
2019-04-16T16:19:44.376Z,9.63
2019-04-16T16:24:45.516Z,8.40
2019-04-16T16:29:46.681Z,10.30
2019-04-16T16:34:47.921Z,8.90
2019-04-16T16:39:49.253Z,11.83
2019-04-16T16:44:50.366Z,12.13
2019-04-16T16:49:51.592Z,11.10
2019-04-16T16:54:55.113Z,13.03
2019-04-16T17:00:14.765Z,13.37
2019-04-16T17:05:17.772Z,10.60
2019-04-16T17:10:18.882Z,9.90
2019-04-16T17:15:20.088Z,9.67
2019-04-16T17:20:22.063Z,9.67
2019-04-16T17:25:35.516Z,9.73
2019-04-16T17:30:26.957Z,8.80
2019-04-16T17:35:28.164Z,9.17
2019-04-16T17:40:46.508Z,12.13
2019-04-16T17:46:04.652Z,10.00
2019-04-16T17:51:19.645Z,9.70
2019-04-16T17:56:39.210Z,9.17
2019-04-16T18:01:44.987Z,12.10
2019-04-16T18:06:48.044Z,10.47
2019-04-16T18:11:51.056Z,9.53
2019-04-16T18:16:55.463Z,9.90
2019-04-16T18:22:03.820Z,12.43
2019-04-16T18:27:19.027Z,14.20
2019-04-16T18:32:22.851Z,11.93
2019-04-16T18:37:32.351Z,11.40
2019-04-16T18:42:47.431Z,13.27
2019-04-16T18:48:04.917Z,14.70
2019-04-16T18:52:59.650Z,14.57
2019-04-16T18:58:01.101Z,14.27
2019-04-16T19:03:02.690Z,16.00
2019-04-16T19:08:05.710Z,12.50
2019-04-16T19:13:11.183Z,12.47
2019-04-16T19:18:19.745Z,11.20
2019-04-16T19:23:13.292Z,11.37
2019-04-16T19:28:14.657Z,15.10
2019-04-16T19:33:15.776Z,12.67
2019-04-16T19:38:18.242Z,13.70
2019-04-16T19:43:19.713Z,13.90
2019-04-16T19:48:34.519Z,10.30
2019-04-16T19:53:24.086Z,8.80
2019-04-16T19:58:25.537Z,9.60
2019-04-16T20:03:30.156Z,9.90
2019-04-16T20:08:34.515Z,10.17
2019-04-16T20:13:33.390Z,9.13
2019-04-16T20:18:49.976Z,12.53
2019-04-16T20:23:37.994Z,11.07
2019-04-16T20:28:39.294Z,11.57
2019-04-16T20:33:40.544Z,11.77
2019-04-16T20:38:41.743Z,10.47
2019-04-16T20:43:42.871Z,10.10
2019-04-16T20:48:45.018Z,9.33
2019-04-16T20:53:46.974Z,10.60
2019-04-16T20:58:48.086Z,9.60
2019-04-16T21:03:54.112Z,9.17
2019-04-16T21:08:57.163Z,8.20
2019-04-16T21:13:58.447Z,8.20
2019-04-16T21:18:59.592Z,6.90
2019-04-16T21:24:06.364Z,8.80
2019-04-16T21:29:21.297Z,8.63
2019-04-16T21:34:24.948Z,9.07
2019-04-16T21:39:33.318Z,9.17
2019-04-16T21:44:34.406Z,10.43
2019-04-16T21:49:38.834Z,9.77
2019-04-16T21:54:38.835Z,9.93
2019-04-16T21:59:40.142Z,9.67
2019-04-16T22:04:42.718Z,9.30
2019-04-16T22:09:45.179Z,7.80
2019-04-16T22:14:46.276Z,8.20
2019-04-16T22:19:54.338Z,8.27
2019-04-16T22:24:51.822Z,9.03
2019-04-16T22:29:53.376Z,9.37
2019-04-16T22:34:54.468Z,9.73
2019-04-16T22:40:00.445Z,10.47
2019-04-16T22:45:04.755Z,10.83
2019-04-16T22:50:16.443Z,10.93
2019-04-16T22:55:09.181Z,10.40
2019-04-16T23:00:15.587Z,11.13
2019-04-16T23:05:16.679Z,11.63
2019-04-16T23:10:20.725Z,10.40
2019-04-16T23:15:20.787Z,10.17
2019-04-16T23:20:29.087Z,9.57
2019-04-16T23:25:27.357Z,9.90
2019-04-16T23:30:27.892Z,10.23
2019-04-16T23:35:28.982Z,10.30
2019-04-16T23:40:30.082Z,9.80
2019-04-16T23:45:38.864Z,10.77
2019-04-16T23:50:45.139Z,11.20
2019-04-16T23:55:52.355Z,11.17
